sensor_id;sensor_type;location;lat;lon;timestamp;pressure;altitude;pressure_sealevel;temperature;humidity
75521;BME280;64102;48.628;9.002;2023-02-28T00:00:20;96607.81;;;-3.99;68.65
75521;BME280;64102;48.628;9.002;2023-02-28T00:02:46;96603.53;;;-3.97;68.21
75521;BME280;64102;48.628;9.002;2023-02-28T00:05:14;96611.16;;;-3.98;69.24
75521;BME280;64102;48.628;9.002;2023-02-28T00:07:40;96604.69;;;-4.09;69.57
75521;BME280;64102;48.628;9.002;2023-02-28T00:10:09;96605.59;;;-4.11;69.54
75521;BME280;64102;48.628;9.002;2023-02-28T00:12:36;96606.47;;;-4.12;69.36
75521;BME280;64102;48.628;9.002;2023-02-28T00:15:04;96603.19;;;-4.16;69.84
75521;BME280;64102;48.628;9.002;2023-02-28T00:17:30;96603.00;;;-4.08;68.85
75521;BME280;64102;48.628;9.002;2023-02-28T00:19:55;96604.78;;;-4.13;70.00
75521;BME280;64102;48.628;9.002;2023-02-28T00:22:22;96603.34;;;-4.22;70.19
75521;BME280;64102;48.628;9.002;2023-02-28T00:24:47;96601.56;;;-4.18;69.97
75521;BME280;64102;48.628;9.002;2023-02-28T00:27:14;96603.44;;;-4.26;70.51
75521;BME280;64102;48.628;9.002;2023-02-28T00:29:39;96590.00;;;-4.27;70.32
75521;BME280;64102;48.628;9.002;2023-02-28T00:32:05;96598.50;;;-4.29;70.49
75521;BME280;64102;48.628;9.002;2023-02-28T00:34:31;96599.25;;;-4.27;69.86
75521;BME280;64102;48.628;9.002;2023-02-28T00:37:06;96599.31;;;-4.29;70.75
75521;BME280;64102;48.628;9.002;2023-02-28T00:39:33;96607.03;;;-4.36;70.81
75521;BME280;64102;48.628;9.002;2023-02-28T00:41:59;96605.44;;;-4.39;70.40
75521;BME280;64102;48.628;9.002;2023-02-28T00:44:24;96603.84;;;-4.43;70.46
75521;BME280;64102;48.628;9.002;2023-02-28T00:46:49;96609.00;;;-4.47;71.60
75521;BME280;64102;48.628;9.002;2023-02-28T00:49:15;96603.09;;;-4.46;70.88
75521;BME280;64102;48.628;9.002;2023-02-28T00:51:40;96595.56;;;-4.48;71.47
75521;BME280;64102;48.628;9.002;2023-02-28T00:54:06;96593.81;;;-4.44;71.08
75521;BME280;64102;48.628;9.002;2023-02-28T00:56:31;96594.53;;;-4.39;70.62
75521;BME280;64102;48.628;9.002;2023-02-28T00:58:56;96597.06;;;-4.41;71.32
75521;BME280;64102;48.628;9.002;2023-02-28T01:01:22;96601.34;;;-4.44;71.17
75521;BME280;64102;48.628;9.002;2023-02-28T01:03:47;96592.22;;;-4.48;71.11
75521;BME280;64102;48.628;9.002;2023-02-28T01:06:12;96597.25;;;-4.48;71.30
75521;BME280;64102;48.628;9.002;2023-02-28T01:08:38;96595.88;;;-4.62;72.19
75521;BME280;64102;48.628;9.002;2023-02-28T01:11:10;96590.09;;;-4.65;71.99
75521;BME280;64102;48.628;9.002;2023-02-28T01:13:36;96595.13;;;-4.65;71.73
75521;BME280;64102;48.628;9.002;2023-02-28T01:16:01;96589.34;;;-4.69;72.44
75521;BME280;64102;48.628;9.002;2023-02-28T01:18:27;96596.94;;;-4.72;72.28
75521;BME280;64102;48.628;9.002;2023-02-28T01:20:53;96590.97;;;-4.68;71.92
75521;BME280;64102;48.628;9.002;2023-02-28T01:23:19;96593.56;;;-4.69;72.34
75521;BME280;64102;48.628;9.002;2023-02-28T01:25:46;96585.22;;;-4.73;72.60
75521;BME280;64102;48.628;9.002;2023-02-28T01:28:11;96590.34;;;-4.76;72.87
75521;BME280;64102;48.628;9.002;2023-02-28T01:30:37;96586.16;;;-4.77;72.43
75521;BME280;64102;48.628;9.002;2023-02-28T01:33:02;96581.94;;;-4.76;72.97
75521;BME280;64102;48.628;9.002;2023-02-28T01:35:28;96582.00;;;-4.78;72.82
75521;BME280;64102;48.628;9.002;2023-02-28T01:37:53;96578.66;;;-4.78;73.03
75521;BME280;64102;48.628;9.002;2023-02-28T01:40:19;96579.50;;;-4.78;73.51
75521;BME280;64102;48.628;9.002;2023-02-28T01:42:44;96576.25;;;-4.83;73.55
75521;BME280;64102;48.628;9.002;2023-02-28T01:47:48;96583.63;;;-4.77;73.46
75521;BME280;64102;48.628;9.002;2023-02-28T01:50:19;96581.13;;;-4.77;73.87
75521;BME280;64102;48.628;9.002;2023-02-28T01:52:47;96582.81;;;-4.77;73.83
75521;BME280;64102;48.628;9.002;2023-02-28T01:55:14;96576.06;;;-4.75;73.89
75521;BME280;64102;48.628;9.002;2023-02-28T01:57:46;96576.06;;;-4.75;73.85
75521;BME280;64102;48.628;9.002;2023-02-28T02:00:16;96570.13;;;-4.73;73.63
75521;BME280;64102;48.628;9.002;2023-02-28T02:02:44;96565.97;;;-4.74;74.17
75521;BME280;64102;48.628;9.002;2023-02-28T02:05:14;96565.88;;;-4.71;73.98
75521;BME280;64102;48.628;9.002;2023-02-28T02:07:43;96560.03;;;-4.71;74.44
75521;BME280;64102;48.628;9.002;2023-02-28T02:10:20;96570.13;;;-4.73;74.05
75521;BME280;64102;48.628;9.002;2023-02-28T02:13:00;96554.16;;;-4.72;74.46
75521;BME280;64102;48.628;9.002;2023-02-28T02:18:24;96557.47;;;-4.70;74.33
75521;BME280;64102;48.628;9.002;2023-02-28T02:37:57;96543.16;;;-4.68;75.69
75521;BME280;64102;48.628;9.002;2023-02-28T02:40:32;96547.31;;;-4.65;75.61
75521;BME280;64102;48.628;9.002;2023-02-28T02:43:10;96546.31;;;-4.60;75.46
75521;BME280;64102;48.628;9.002;2023-02-28T02:46:22;96537.88;;;-4.57;75.91
75521;BME280;64102;48.628;9.002;2023-02-28T02:48:50;96550.28;;;-4.49;75.22
75521;BME280;64102;48.628;9.002;2023-02-28T02:51:21;96541.00;;;-4.47;75.77
75521;BME280;64102;48.628;9.002;2023-02-28T02:53:58;96551.72;;;-4.39;75.15
75521;BME280;64102;48.628;9.002;2023-02-28T02:56:30;96549.16;;;-4.38;75.08
75521;BME280;64102;48.628;9.002;2023-02-28T02:59:04;96544.88;;;-4.34;75.33
75521;BME280;64102;48.628;9.002;2023-02-28T03:01:32;96544.81;;;-4.33;75.19
75521;BME280;64102;48.628;9.002;2023-02-28T03:04:03;96548.97;;;-4.30;75.12
75521;BME280;64102;48.628;9.002;2023-02-28T03:06:29;96555.59;;;-4.26;75.33
75521;BME280;64102;48.628;9.002;2023-02-28T03:08:54;96546.34;;;-4.26;75.88
75521;BME280;64102;48.628;9.002;2023-02-28T03:11:20;96554.66;;;-4.24;75.16
75521;BME280;64102;48.628;9.002;2023-02-28T03:13:53;96555.50;;;-4.23;75.53
75521;BME280;64102;48.628;9.002;2023-02-28T03:19:43;96550.50;;;-4.25;75.53
75521;BME280;64102;48.628;9.002;2023-02-28T03:28:15;96545.66;;;-4.32;76.60
75521;BME280;64102;48.628;9.002;2023-02-28T03:30:51;96551.50;;;-4.30;76.29
75521;BME280;64102;48.628;9.002;2023-02-28T03:33:30;96548.09;;;-4.29;76.98
75521;BME280;64102;48.628;9.002;2023-02-28T03:36:01;96549.63;;;-4.24;76.38
75521;BME280;64102;48.628;9.002;2023-02-28T03:38:39;96545.28;;;-4.17;76.08
75521;BME280;64102;48.628;9.002;2023-02-28T03:41:13;96545.94;;;-4.11;76.61
75521;BME280;64102;48.628;9.002;2023-02-28T03:43:44;96545.00;;;-4.07;76.37
75521;BME280;64102;48.628;9.002;2023-02-28T03:46:15;96534.88;;;-4.05;76.16
75521;BME280;64102;48.628;9.002;2023-02-28T03:48:49;96539.09;;;-4.06;75.94
75521;BME280;64102;48.628;9.002;2023-02-28T03:51:19;96538.13;;;-4.01;76.43
75521;BME280;64102;48.628;9.002;2023-02-28T03:53:54;96534.75;;;-4.00;75.91
75521;BME280;64102;48.628;9.002;2023-02-28T03:56:27;96543.94;;;-3.98;76.37
75521;BME280;64102;48.628;9.002;2023-02-28T03:59:04;96539.69;;;-3.96;76.68
75521;BME280;64102;48.628;9.002;2023-02-28T04:01:35;96548.88;;;-3.93;77.46
75521;BME280;64102;48.628;9.002;2023-02-28T04:04:03;96548.78;;;-3.90;77.32
75521;BME280;64102;48.628;9.002;2023-02-28T04:06:30;96547.94;;;-3.91;77.50
75521;BME280;64102;48.628;9.002;2023-02-28T04:08:56;96536.13;;;-3.89;76.85
75521;BME280;64102;48.628;9.002;2023-02-28T04:11:27;96541.22;;;-3.90;77.29
75521;BME280;64102;48.628;9.002;2023-02-28T04:13:55;96537.88;;;-3.91;76.47
75521;BME280;64102;48.628;9.002;2023-02-28T04:16:20;96546.28;;;-3.92;77.66
75521;BME280;64102;48.628;9.002;2023-02-28T04:18:46;96551.31;;;-3.92;77.40
75521;BME280;64102;48.628;9.002;2023-02-28T04:21:11;96546.25;;;-3.90;76.83
75521;BME280;64102;48.628;9.002;2023-02-28T04:23:37;96542.03;;;-3.90;77.53
75521;BME280;64102;48.628;9.002;2023-02-28T04:26:03;96539.53;;;-3.90;77.14
75521;BME280;64102;48.628;9.002;2023-02-28T04:28:29;96548.69;;;-3.87;77.79
75521;BME280;64102;48.628;9.002;2023-02-28T04:30:59;96548.69;;;-3.87;77.68
75521;BME280;64102;48.628;9.002;2023-02-28T04:33:24;96543.63;;;-3.86;78.07
75521;BME280;64102;48.628;9.002;2023-02-28T04:36:05;96547.84;;;-3.88;77.58
75521;BME280;64102;48.628;9.002;2023-02-28T04:38:35;96536.97;;;-3.88;79.18
75521;BME280;64102;48.628;9.002;2023-02-28T04:41:01;96541.09;;;-3.86;78.10
75521;BME280;64102;48.628;9.002;2023-02-28T04:43:28;96538.56;;;-3.86;77.82
75521;BME280;64102;48.628;9.002;2023-02-28T04:45:54;96545.28;;;-3.85;78.27
75521;BME280;64102;48.628;9.002;2023-02-28T04:48:27;96541.06;;;-3.84;78.11
75521;BME280;64102;48.628;9.002;2023-02-28T04:50:53;96545.97;;;-3.80;78.37
75521;BME280;64102;48.628;9.002;2023-02-28T04:53:19;96538.34;;;-3.78;77.92
75521;BME280;64102;48.628;9.002;2023-02-28T04:55:45;96540.84;;;-3.77;77.88
75521;BME280;64102;48.628;9.002;2023-02-28T04:58:11;96543.38;;;-3.77;78.19
75521;BME280;64102;48.628;9.002;2023-02-28T05:00:36;96535.72;;;-3.74;77.39
75521;BME280;64102;48.628;9.002;2023-02-28T05:03:02;96540.75;;;-3.74;77.87
75521;BME280;64102;48.628;9.002;2023-02-28T05:05:27;96543.28;;;-3.74;78.60
75521;BME280;64102;48.628;9.002;2023-02-28T05:07:53;96547.47;;;-3.73;78.25
75521;BME280;64102;48.628;9.002;2023-02-28T05:10:21;96549.03;;;-3.69;77.94
75521;BME280;64102;48.628;9.002;2023-02-28T05:12:46;96539.75;;;-3.67;78.06
75521;BME280;64102;48.628;9.002;2023-02-28T05:15:14;96554.91;;;-3.68;78.49
75521;BME280;64102;48.628;9.002;2023-02-28T05:17:40;96550.66;;;-3.66;78.57
75521;BME280;64102;48.628;9.002;2023-02-28T05:20:06;96554.81;;;-3.65;78.83
75521;BME280;64102;48.628;9.002;2023-02-28T05:22:31;96553.97;;;-3.66;78.34
75521;BME280;64102;48.628;9.002;2023-02-28T05:24:57;96553.09;;;-3.63;78.96
75521;BME280;64102;48.628;9.002;2023-02-28T05:27:23;96560.56;;;-3.60;78.68
75521;BME280;64102;48.628;9.002;2023-02-28T05:29:48;96561.47;;;-3.63;79.05
75521;BME280;64102;48.628;9.002;2023-02-28T05:32:14;96562.25;;;-3.61;79.82
75521;BME280;64102;48.628;9.002;2023-02-28T05:34:40;96558.91;;;-3.61;79.84
75521;BME280;64102;48.628;9.002;2023-02-28T05:37:11;96557.28;;;-3.64;79.39
75521;BME280;64102;48.628;9.002;2023-02-28T05:39:37;96557.28;;;-3.64;80.08
75521;BME280;64102;48.628;9.002;2023-02-28T05:45:24;96560.75;;;-3.66;80.60
75521;BME280;64102;48.628;9.002;2023-02-28T05:47:53;96562.34;;;-3.64;80.97
75521;BME280;64102;48.628;9.002;2023-02-28T05:50:18;96553.25;;;-3.69;80.41
75521;BME280;64102;48.628;9.002;2023-02-28T05:52:44;96558.25;;;-3.68;80.59
75521;BME280;64102;48.628;9.002;2023-02-28T05:55:09;96558.22;;;-3.66;81.64
75521;BME280;64102;48.628;9.002;2023-02-28T05:57:35;96559.84;;;-3.65;80.61
75521;BME280;64102;48.628;9.002;2023-02-28T06:00:00;96556.59;;;-3.69;80.48
75521;BME280;64102;48.628;9.002;2023-02-28T06:02:26;96560.16;;;-3.76;82.52
75521;BME280;64102;48.628;9.002;2023-02-28T06:04:51;96559.19;;;-3.72;82.18
75521;BME280;64102;48.628;9.002;2023-02-28T06:07:16;96564.19;;;-3.70;82.48
75521;BME280;64102;48.628;9.002;2023-02-28T06:09:42;96564.28;;;-3.73;82.47
75521;BME280;64102;48.628;9.002;2023-02-28T06:12:09;96566.72;;;-3.70;82.81
75521;BME280;64102;48.628;9.002;2023-02-28T06:14:35;96567.59;;;-3.71;82.43
75521;BME280;64102;48.628;9.002;2023-02-28T06:17:03;96575.91;;;-3.68;83.30
75521;BME280;64102;48.628;9.002;2023-02-28T06:19:28;96570.94;;;-3.71;82.70
75521;BME280;64102;48.628;9.002;2023-02-28T06:21:56;96576.78;;;-3.70;82.77
75521;BME280;64102;48.628;9.002;2023-02-28T06:24:23;96573.41;;;-3.69;82.16
75521;BME280;64102;48.628;9.002;2023-02-28T06:26:49;96589.53;;;-3.75;83.17
75521;BME280;64102;48.628;9.002;2023-02-28T06:29:15;96583.47;;;-3.68;82.61
75521;BME280;64102;48.628;9.002;2023-02-28T06:31:44;96594.28;;;-3.64;83.28
75521;BME280;64102;48.628;9.002;2023-02-28T06:34:10;96589.28;;;-3.66;81.99
75521;BME280;64102;48.628;9.002;2023-02-28T06:36:40;96590.84;;;-3.62;82.54
75521;BME280;64102;48.628;9.002;2023-02-28T06:39:07;96590.91;;;-3.63;81.91
75521;BME280;64102;48.628;9.002;2023-02-28T06:41:32;96594.06;;;-3.56;82.21
75521;BME280;64102;48.628;9.002;2023-02-28T06:44:04;96593.19;;;-3.54;82.03
75521;BME280;64102;48.628;9.002;2023-02-28T06:46:31;96596.34;;;-3.47;82.11
75521;BME280;64102;48.628;9.002;2023-02-28T06:48:56;96586.31;;;-3.49;81.30
75521;BME280;64102;48.628;9.002;2023-02-28T06:51:22;96593.88;;;-3.49;81.40
75521;BME280;64102;48.628;9.002;2023-02-28T06:53:49;96594.59;;;-3.44;80.42
75521;BME280;64102;48.628;9.002;2023-02-28T06:56:16;96605.41;;;-3.40;81.71
75521;BME280;64102;48.628;9.002;2023-02-28T06:58:46;96601.28;;;-3.43;80.88
75521;BME280;64102;48.628;9.002;2023-02-28T07:01:13;96602.94;;;-3.42;81.82
75521;BME280;64102;48.628;9.002;2023-02-28T07:03:38;96600.91;;;-3.29;80.29
75521;BME280;64102;48.628;9.002;2023-02-28T07:06:04;96598.31;;;-3.26;79.90
75521;BME280;64102;48.628;9.002;2023-02-28T07:08:30;96599.88;;;-3.22;80.22
75521;BME280;64102;48.628;9.002;2023-02-28T07:10:57;96605.66;;;-3.19;79.17
75521;BME280;64102;48.628;9.002;2023-02-28T07:13:23;96607.94;;;-3.11;78.90
75521;BME280;64102;48.628;9.002;2023-02-28T07:15:56;96611.44;;;-3.15;78.06
75521;BME280;64102;48.628;9.002;2023-02-28T07:18:22;96601.31;;;-3.13;79.04
75521;BME280;64102;48.628;9.002;2023-02-28T07:20:47;96602.81;;;-3.08;77.85
75521;BME280;64102;48.628;9.002;2023-02-28T07:23:13;96612.03;;;-3.07;79.08
75521;BME280;64102;48.628;9.002;2023-02-28T07:25:38;96612.13;;;-3.10;78.07
75521;BME280;64102;48.628;9.002;2023-02-28T07:28:04;96618.63;;;-3.01;77.79
75521;BME280;64102;48.628;9.002;2023-02-28T07:30:29;96616.81;;;-2.98;78.15
75521;BME280;64102;48.628;9.002;2023-02-28T07:32:55;96610.75;;;-2.91;78.15
75521;BME280;64102;48.628;9.002;2023-02-28T07:35:21;96620.72;;;-2.86;76.64
75521;BME280;64102;48.628;9.002;2023-02-28T07:37:47;96609.81;;;-2.88;76.71
75521;BME280;64102;48.628;9.002;2023-02-28T07:40:12;96609.66;;;-2.82;76.47
75521;BME280;64102;48.628;9.002;2023-02-28T07:42:39;96604.72;;;-2.87;75.86
75521;BME280;64102;48.628;9.002;2023-02-28T07:45:05;96613.72;;;-2.78;76.13
75521;BME280;64102;48.628;9.002;2023-02-28T07:47:31;96608.63;;;-2.77;75.57
75521;BME280;64102;48.628;9.002;2023-02-28T07:49:57;96616.13;;;-2.74;76.21
75521;BME280;64102;48.628;9.002;2023-02-28T07:52:23;96616.03;;;-2.71;76.07
75521;BME280;64102;48.628;9.002;2023-02-28T07:54:50;96618.19;;;-2.86;75.66
75521;BME280;64102;48.628;9.002;2023-02-28T07:57:15;96610.94;;;-2.69;75.78
75521;BME280;64102;48.628;9.002;2023-02-28T07:59:41;96628.63;;;-2.69;75.16
75521;BME280;64102;48.628;9.002;2023-02-28T08:02:06;96621.22;;;-2.75;76.61
75521;BME280;64102;48.628;9.002;2023-02-28T08:04:32;96627.66;;;-2.65;76.51
75521;BME280;64102;48.628;9.002;2023-02-28T08:06:57;96629.31;;;-2.64;75.75
75521;BME280;64102;48.628;9.002;2023-02-28T08:09:23;96618.22;;;-2.60;74.60
75521;BME280;64102;48.628;9.002;2023-02-28T08:11:48;96630.72;;;-2.55;74.22
75521;BME280;64102;48.628;9.002;2023-02-28T08:14:14;96628.09;;;-2.52;74.98
75521;BME280;64102;48.628;9.002;2023-02-28T08:16:39;96628.09;;;-2.52;74.32
75521;BME280;64102;48.628;9.002;2023-02-28T08:19:05;96638.91;;;-2.47;75.00
75521;BME280;64102;48.628;9.002;2023-02-28T08:21:30;96646.03;;;-2.60;74.34
75521;BME280;64102;48.628;9.002;2023-02-28T08:23:55;96633.25;;;-2.55;76.19
75521;BME280;64102;48.628;9.002;2023-02-28T08:26:22;96638.09;;;-2.49;73.91
75521;BME280;64102;48.628;9.002;2023-02-28T08:28:48;96631.06;;;-2.40;74.33
75521;BME280;64102;48.628;9.002;2023-02-28T08:31:15;96631.22;;;-2.44;74.44
75521;BME280;64102;48.628;9.002;2023-02-28T08:33:41;96640.97;;;-2.60;73.88
75521;BME280;64102;48.628;9.002;2023-02-28T08:36:07;96639.59;;;-2.42;74.89
75521;BME280;64102;48.628;9.002;2023-02-28T08:38:33;96641.63;;;-2.27;74.46
75521;BME280;64102;48.628;9.002;2023-02-28T08:41:01;96632.69;;;-2.37;73.64
75521;BME280;64102;48.628;9.002;2023-02-28T08:43:27;96640.84;;;-2.29;73.60
75521;BME280;64102;48.628;9.002;2023-02-28T08:45:53;96642.41;;;-2.25;73.01
75521;BME280;64102;48.628;9.002;2023-02-28T08:48:18;96647.34;;;-2.20;73.44
75521;BME280;64102;48.628;9.002;2023-02-28T08:50:44;96645.78;;;-2.24;72.54
75521;BME280;64102;48.628;9.002;2023-02-28T08:53:09;96647.66;;;-2.31;74.26
75521;BME280;64102;48.628;9.002;2023-02-28T08:55:35;96655.91;;;-2.26;73.56
75521;BME280;64102;48.628;9.002;2023-02-28T08:58:00;96651.66;;;-1.98;73.54
75521;BME280;64102;48.628;9.002;2023-02-28T09:00:26;96646.59;;;-1.98;72.09
75521;BME280;64102;48.628;9.002;2023-02-28T09:02:52;96652.63;;;-2.02;72.67
75521;BME280;64102;48.628;9.002;2023-02-28T09:05:17;96654.72;;;-1.88;71.29
75521;BME280;64102;48.628;9.002;2023-02-28T09:07:42;96651.41;;;-1.90;72.13
75521;BME280;64102;48.628;9.002;2023-02-28T09:10:09;96653.59;;;-1.79;71.76
75521;BME280;64102;48.628;9.002;2023-02-28T09:12:36;96666.63;;;-1.92;71.33
75521;BME280;64102;48.628;9.002;2023-02-28T09:15:02;96665.41;;;-1.80;71.72
75521;BME280;64102;48.628;9.002;2023-02-28T09:17:28;96664.44;;;-1.76;70.15
75521;BME280;64102;48.628;9.002;2023-02-28T09:19:53;96675.38;;;-1.75;72.39
75521;BME280;64102;48.628;9.002;2023-02-28T09:22:19;96668.94;;;-1.59;71.59
75521;BME280;64102;48.628;9.002;2023-02-28T09:24:44;96671.13;;;-1.49;71.04
75521;BME280;64102;48.628;9.002;2023-02-28T09:27:09;96667.06;;;-1.54;70.96
75521;BME280;64102;48.628;9.002;2023-02-28T09:29:35;96661.59;;;-1.42;69.19
75521;BME280;64102;48.628;9.002;2023-02-28T09:32:01;96674.50;;;-1.50;69.33
75521;BME280;64102;48.628;9.002;2023-02-28T09:34:27;96669.78;;;-1.34;70.91
75521;BME280;64102;48.628;9.002;2023-02-28T09:36:53;96658.59;;;-1.28;70.21
75521;BME280;64102;48.628;9.002;2023-02-28T09:39:21;96663.59;;;-1.52;68.27
75521;BME280;64102;48.628;9.002;2023-02-28T09:41:50;96675.41;;;-1.26;69.98
75521;BME280;64102;48.628;9.002;2023-02-28T09:46:57;96668.56;;;-1.24;69.03
75521;BME280;64102;48.628;9.002;2023-02-28T09:49:31;96673.25;;;-1.13;66.46
75521;BME280;64102;48.628;9.002;2023-02-28T09:52:02;96659.38;;;-1.26;67.26
75521;BME280;64102;48.628;9.002;2023-02-28T09:54:30;96668.47;;;-1.21;68.73
75521;BME280;64102;48.628;9.002;2023-02-28T10:07:17;96682.13;;;-1.02;68.03
75521;BME280;64102;48.628;9.002;2023-02-28T10:09:47;96676.63;;;-1.13;66.19
75521;BME280;64102;48.628;9.002;2023-02-28T10:12:16;96698.97;;;-1.01;67.08
75521;BME280;64102;48.628;9.002;2023-02-28T10:14:45;96689.56;;;-0.97;68.58
75521;BME280;64102;48.628;9.002;2023-02-28T10:17:38;96692.53;;;-1.09;67.58
75521;BME280;64102;48.628;9.002;2023-02-28T10:20:11;96690.69;;;-0.81;66.59
75521;BME280;64102;48.628;9.002;2023-02-28T10:25:19;96688.31;;;-0.85;65.71
75521;BME280;64102;48.628;9.002;2023-02-28T10:27:45;96700.91;;;-0.84;67.22
75521;BME280;64102;48.628;9.002;2023-02-28T10:30:11;96693.59;;;-0.92;66.04
75521;BME280;64102;48.628;9.002;2023-02-28T10:32:40;96702.72;;;-0.87;66.26
75521;BME280;64102;48.628;9.002;2023-02-28T10:35:19;96699.34;;;-1.11;64.96
75521;BME280;64102;48.628;9.002;2023-02-28T10:37:47;96697.88;;;-0.94;65.66
75521;BME280;64102;48.628;9.002;2023-02-28T10:43:02;96702.06;;;-0.46;65.08
75521;BME280;64102;48.628;9.002;2023-02-28T10:45:30;96704.50;;;-0.66;64.92
75521;BME280;64102;48.628;9.002;2023-02-28T10:47:59;96705.47;;;-0.94;64.65
75521;BME280;64102;48.628;9.002;2023-02-28T10:50:36;96696.03;;;-0.43;65.53
75521;BME280;64102;48.628;9.002;2023-02-28T11:01:16;96698.97;;;-0.09;62.83
75521;BME280;64102;48.628;9.002;2023-02-28T11:03:43;96695.34;;;-0.04;62.39
75521;BME280;64102;48.628;9.002;2023-02-28T11:06:16;96702.22;;;0.36;62.58
75521;BME280;64102;48.628;9.002;2023-02-28T11:08:53;96696.03;;;0.43;62.75
75521;BME280;64102;48.628;9.002;2023-02-28T11:11:20;96695.44;;;0.37;60.92
75521;BME280;64102;48.628;9.002;2023-02-28T11:13:47;96708.66;;;0.23;63.13
75521;BME280;64102;48.628;9.002;2023-02-28T11:16:15;96699.03;;;0.53;60.32
75521;BME280;64102;48.628;9.002;2023-02-28T11:18:54;96707.38;;;0.55;60.53
75521;BME280;64102;48.628;9.002;2023-02-28T11:21:32;96714.81;;;0.39;62.39
75521;BME280;64102;48.628;9.002;2023-02-28T11:24:05;96716.81;;;0.31;60.59
75521;BME280;64102;48.628;9.002;2023-02-28T11:26:37;96711.66;;;0.13;60.90
75521;BME280;64102;48.628;9.002;2023-02-28T11:29:11;96718.19;;;-0.04;61.61
75521;BME280;64102;48.628;9.002;2023-02-28T11:31:37;96709.75;;;0.18;62.15
75521;BME280;64102;48.628;9.002;2023-02-28T11:34:23;96712.09;;;0.64;60.14
75521;BME280;64102;48.628;9.002;2023-02-28T11:36:49;96707.00;;;0.44;61.10
75521;BME280;64102;48.628;9.002;2023-02-28T11:39:15;96705.59;;;0.98;61.55
75521;BME280;64102;48.628;9.002;2023-02-28T11:44:43;96703.28;;;1.51;58.88
75521;BME280;64102;48.628;9.002;2023-02-28T11:47:39;96696.97;;;2.31;55.43
75521;BME280;64102;48.628;9.002;2023-02-28T11:50:42;96689.78;;;2.56;53.66
75521;BME280;64102;48.628;9.002;2023-02-28T11:56:24;96690.66;;;3.87;50.76
75521;BME280;64102;48.628;9.002;2023-02-28T11:59:13;96691.72;;;4.88;48.96
75521;BME280;64102;48.628;9.002;2023-02-28T12:07:31;96685.38;;;3.43;51.76
75521;BME280;64102;48.628;9.002;2023-02-28T12:10:17;96675.13;;;5.09;47.69
75521;BME280;64102;48.628;9.002;2023-02-28T12:12:51;96683.56;;;5.39;47.38
75521;BME280;64102;48.628;9.002;2023-02-28T12:15:43;96665.34;;;5.02;45.96
75521;BME280;64102;48.628;9.002;2023-02-28T12:21:10;96672.34;;;6.76;42.67
75521;BME280;64102;48.628;9.002;2023-02-28T12:24:01;96686.56;;;6.55;43.19
75521;BME280;64102;48.628;9.002;2023-02-28T12:26:41;96676.19;;;4.47;47.23
75521;BME280;64102;48.628;9.002;2023-02-28T12:29:29;96682.00;;;4.05;49.61
75521;BME280;64102;48.628;9.002;2023-02-28T12:31:58;96683.53;;;4.07;49.43
75521;BME280;64102;48.628;9.002;2023-02-28T12:34:48;96673.84;;;5.45;46.59
75521;BME280;64102;48.628;9.002;2023-02-28T12:40:11;96672.69;;;8.07;40.58
75521;BME280;64102;48.628;9.002;2023-02-28T12:42:43;96659.22;;;8.28;40.17
75521;BME280;64102;48.628;9.002;2023-02-28T12:45:20;96666.81;;;8.42;37.24
75521;BME280;64102;48.628;9.002;2023-02-28T12:47:50;96663.25;;;7.95;39.65
75521;BME280;64102;48.628;9.002;2023-02-28T12:50:16;96661.47;;;7.36;40.84
75521;BME280;64102;48.628;9.002;2023-02-28T12:58:54;96654.09;;;5.61;44.86
75521;BME280;64102;48.628;9.002;2023-02-28T13:09:16;96641.72;;;5.67;44.42
75521;BME280;64102;48.628;9.002;2023-02-28T13:25:01;96642.69;;;5.52;46.73
75521;BME280;64102;48.628;9.002;2023-02-28T13:27:38;96638.31;;;5.40;44.91
75521;BME280;64102;48.628;9.002;2023-02-28T13:33:29;96639.97;;;7.37;43.18
75521;BME280;64102;48.628;9.002;2023-02-28T13:38:42;96637.94;;;3.86;49.74
75521;BME280;64102;48.628;9.002;2023-02-28T13:46:30;96653.56;;;5.27;44.38
75521;BME280;64102;48.628;9.002;2023-02-28T13:51:49;96647.81;;;7.35;42.10
75521;BME280;64102;48.628;9.002;2023-02-28T13:59:33;96641.72;;;6.08;43.92
75521;BME280;64102;48.628;9.002;2023-02-28T14:05:19;96641.22;;;7.80;41.00
75521;BME280;64102;48.628;9.002;2023-02-28T14:07:57;96638.91;;;6.65;43.34
75521;BME280;64102;48.628;9.002;2023-02-28T14:10:27;96649.31;;;5.69;43.98
75521;BME280;64102;48.628;9.002;2023-02-28T14:12:55;96651.53;;;5.61;45.24
75521;BME280;64102;48.628;9.002;2023-02-28T14:15:34;96640.00;;;5.54;44.85
75521;BME280;64102;48.628;9.002;2023-02-28T14:18:03;96641.75;;;6.21;44.29
75521;BME280;64102;48.628;9.002;2023-02-28T14:20:32;96638.06;;;6.25;44.71
75521;BME280;64102;48.628;9.002;2023-02-28T14:31:58;96628.41;;;6.68;42.93
75521;BME280;64102;48.628;9.002;2023-02-28T14:37:14;96638.50;;;6.96;42.33
75521;BME280;64102;48.628;9.002;2023-02-28T14:39:43;96641.47;;;6.90;42.40
75521;BME280;64102;48.628;9.002;2023-02-28T14:42:31;96637.94;;;6.66;43.14
75521;BME280;64102;48.628;9.002;2023-02-28T14:44:57;96644.28;;;6.48;43.53
75521;BME280;64102;48.628;9.002;2023-02-28T14:47:27;96640.34;;;6.69;41.91
75521;BME280;64102;48.628;9.002;2023-02-28T14:49:53;96651.50;;;6.55;42.04
75521;BME280;64102;48.628;9.002;2023-02-28T14:52:21;96639.28;;;6.59;44.17
75521;BME280;64102;48.628;9.002;2023-02-28T14:54:53;96645.69;;;6.91;42.34
75521;BME280;64102;48.628;9.002;2023-02-28T15:00:13;96641.84;;;6.59;43.46
75521;BME280;64102;48.628;9.002;2023-02-28T15:02:39;96643.38;;;6.09;43.90
75521;BME280;64102;48.628;9.002;2023-02-28T15:07:43;96649.25;;;6.24;43.96
75521;BME280;64102;48.628;9.002;2023-02-28T15:12:37;96646.88;;;6.21;44.19
75521;BME280;64102;48.628;9.002;2023-02-28T15:15:05;96641.38;;;6.00;44.24
75521;BME280;64102;48.628;9.002;2023-02-28T15:17:31;96646.63;;;5.84;45.12
75521;BME280;64102;48.628;9.002;2023-02-28T15:19:57;96655.50;;;5.93;43.96
75521;BME280;64102;48.628;9.002;2023-02-28T15:22:34;96648.66;;;5.79;45.40
75521;BME280;64102;48.628;9.002;2023-02-28T15:25:02;96642.59;;;5.39;45.81
75521;BME280;64102;48.628;9.002;2023-02-28T15:27:31;96642.47;;;5.55;46.98
75521;BME280;64102;48.628;9.002;2023-02-28T15:30:05;96654.75;;;5.36;47.68
75521;BME280;64102;48.628;9.002;2023-02-28T15:32:37;96645.78;;;5.57;47.05
75521;BME280;64102;48.628;9.002;2023-02-28T15:37:55;96643.66;;;4.65;47.30
75521;BME280;64102;48.628;9.002;2023-02-28T15:40:37;96640.50;;;4.31;48.21
75521;BME280;64102;48.628;9.002;2023-02-28T15:43:13;96639.34;;;4.21;48.82